createdAt,value
2022-11-06T00:01:12.922Z,5.28
2022-11-06T00:03:40.014Z,6.13
2022-11-06T00:06:30.930Z,6.72
2022-11-06T00:09:00.285Z,5.72
2022-11-06T00:11:27.442Z,6.40
2022-11-06T00:13:54.677Z,6.82
2022-11-06T00:16:21.462Z,6.53
2022-11-06T00:18:48.584Z,5.45
2022-11-06T00:21:18.391Z,6.20
2022-11-06T00:23:47.216Z,7.82
2022-11-06T00:26:18.499Z,7.20
2022-11-06T00:28:45.606Z,6.28
2022-11-06T00:31:15.247Z,5.68
2022-11-06T00:33:42.683Z,7.13
2022-11-06T00:36:13.095Z,6.05
2022-11-06T00:38:39.861Z,6.68
2022-11-06T00:41:12.157Z,7.45
2022-11-06T00:43:39.598Z,6.38
2022-11-06T00:46:13.825Z,6.35
2022-11-06T00:48:42.110Z,6.35
2022-11-06T00:51:23.496Z,6.32
2022-11-06T00:53:55.878Z,6.72
2022-11-06T00:56:23.157Z,5.90
2022-11-06T00:58:50.406Z,6.68
2022-11-06T01:01:26.794Z,8.15
2022-11-06T01:03:59.734Z,6.75
2022-11-06T01:06:35.109Z,6.05
2022-11-06T01:09:03.035Z,5.43
2022-11-06T01:12:11.007Z,5.70
2022-11-06T01:14:28.340Z,5.93
2022-11-06T01:16:55.136Z,4.68
2022-11-06T01:19:22.842Z,5.97
2022-11-06T01:21:52.797Z,6.53
2022-11-06T01:24:23.431Z,6.05
2022-11-06T01:27:12.543Z,6.88
2022-11-06T01:29:37.522Z,4.82
2022-11-06T01:32:04.794Z,5.57
2022-11-06T01:34:31.556Z,6.35
2022-11-06T01:36:58.446Z,5.70
2022-11-06T01:39:25.189Z,7.00
2022-11-06T01:41:53.590Z,5.28
2022-11-06T01:44:41.938Z,5.38
2022-11-06T01:47:25.223Z,5.45
2022-11-06T01:49:55.967Z,5.90
2022-11-06T01:52:24.948Z,4.97
2022-11-06T01:54:54.373Z,5.57
2022-11-06T01:57:21.891Z,5.25
2022-11-06T01:59:51.014Z,4.78
2022-11-06T02:02:18.807Z,6.30
2022-11-06T02:04:48.395Z,6.88
2022-11-06T02:07:17.353Z,5.82
2022-11-06T02:09:44.264Z,4.32
2022-11-06T02:12:10.982Z,6.60
2022-11-06T02:15:05.260Z,6.57
2022-11-06T02:17:42.131Z,4.35
2022-11-06T02:20:20.852Z,5.43
2022-11-06T02:23:29.798Z,4.85
2022-11-06T02:26:28.537Z,5.55
2022-11-06T02:29:04.420Z,6.30
2022-11-06T02:31:35.420Z,4.22
2022-11-06T02:34:10.181Z,6.25
2022-11-06T02:36:42.372Z,3.78
2022-11-06T02:39:14.390Z,4.70
2022-11-06T02:41:44.447Z,4.25
2022-11-06T02:44:18.229Z,4.60
2022-11-06T02:46:56.879Z,4.63
2022-11-06T02:49:31.206Z,5.57
2022-11-06T02:52:05.498Z,4.18
2022-11-06T02:54:38.268Z,4.07
2022-11-06T02:57:10.606Z,6.75
2022-11-06T02:59:47.009Z,4.25
2022-11-06T03:02:28.212Z,4.13
2022-11-06T03:05:17.210Z,5.47
2022-11-06T03:07:47.621Z,4.05
2022-11-06T03:10:14.723Z,4.70
2022-11-06T03:13:07.399Z,4.18
2022-11-06T03:15:48.635Z,5.80
2022-11-06T03:18:42.176Z,4.07
2022-11-06T03:21:21.981Z,4.22
2022-11-06T03:23:58.196Z,4.78
2022-11-06T03:26:35.694Z,3.92
2022-11-06T03:29:05.180Z,4.82
2022-11-06T03:31:37.425Z,5.28
2022-11-06T03:34:10.504Z,6.40
2022-11-06T03:36:43.139Z,5.33
2022-11-06T03:39:19.607Z,3.90
2022-11-06T03:41:52.179Z,4.18
2022-11-06T03:44:23.268Z,3.95
2022-11-06T03:46:58.162Z,5.10
2022-11-06T03:49:35.107Z,3.80
2022-11-06T03:52:11.610Z,4.88
2022-11-06T03:55:01.719Z,5.43
2022-11-06T03:57:39.019Z,5.15
2022-11-06T04:00:08.843Z,4.43
2022-11-06T04:02:39.822Z,4.45
2022-11-06T04:05:25.218Z,4.22
2022-11-06T04:08:14.379Z,5.68
2022-11-06T04:11:06.122Z,4.25
2022-11-06T04:13:53.903Z,4.50
2022-11-06T04:16:21.556Z,3.70
2022-11-06T04:18:48.299Z,3.83
2022-11-06T04:21:26.545Z,3.60
2022-11-06T04:24:42.817Z,4.28
2022-11-06T04:27:38.199Z,4.10
2022-11-06T04:30:17.825Z,3.50
2022-11-06T04:32:52.485Z,4.72
2022-11-06T04:35:33.649Z,4.82
2022-11-06T04:38:12.926Z,4.03
2022-11-06T04:41:03.247Z,3.83
2022-11-06T04:43:51.389Z,4.20
2022-11-06T04:46:27.470Z,3.38
2022-11-06T04:48:55.065Z,3.90
2022-11-06T04:51:26.259Z,3.13
2022-11-06T04:53:54.857Z,4.68
2022-11-06T04:56:34.667Z,4.40
2022-11-06T04:59:03.051Z,5.35
2022-11-06T05:01:30.179Z,5.38
2022-11-06T05:03:57.179Z,4.82
2022-11-06T05:06:29.798Z,3.13
2022-11-06T05:08:58.289Z,4.87
2022-11-06T05:11:25.195Z,5.03
2022-11-06T05:13:51.991Z,3.90
2022-11-06T05:16:18.718Z,4.28
2022-11-06T05:18:45.498Z,4.07
2022-11-06T05:21:30.627Z,5.90
2022-11-06T05:23:57.404Z,4.00
2022-11-06T05:26:24.183Z,5.65
2022-11-06T05:28:50.928Z,4.75
2022-11-06T05:31:17.698Z,4.13
2022-11-06T05:33:44.534Z,6.30
2022-11-06T05:36:11.380Z,2.92
2022-11-06T05:38:38.186Z,5.20
2022-11-06T05:41:05.200Z,3.45
2022-11-06T05:43:32.313Z,3.33
2022-11-06T05:46:00.670Z,4.93
2022-11-06T05:48:28.584Z,3.80
2022-11-06T05:51:09.172Z,5.32
2022-11-06T05:53:37.471Z,3.45
2022-11-06T05:56:05.158Z,4.25
2022-11-06T05:58:31.956Z,4.75
2022-11-06T06:00:59.193Z,4.60
2022-11-06T06:03:26.520Z,5.47
2022-11-06T06:05:53.263Z,5.43
2022-11-06T06:08:21.411Z,5.93
2022-11-06T06:10:48.481Z,3.95
2022-11-06T06:13:15.772Z,4.72
2022-11-06T06:15:43.034Z,6.85
2022-11-06T06:18:10.599Z,5.25
2022-11-06T06:20:37.867Z,4.63
2022-11-06T06:23:08.315Z,5.85
2022-11-06T06:25:36.188Z,4.22
2022-11-06T06:28:02.970Z,4.40
2022-11-06T06:30:29.844Z,5.20
2022-11-06T06:32:56.574Z,4.13
2022-11-06T06:35:23.358Z,4.85
2022-11-06T06:37:54.387Z,4.05
2022-11-06T06:40:22.388Z,3.78
2022-11-06T06:42:49.525Z,4.10
2022-11-06T06:45:17.026Z,3.45
2022-11-06T06:47:43.812Z,4.55
2022-11-06T06:50:10.970Z,5.05
2022-11-06T06:52:37.838Z,6.63
2022-11-06T06:55:06.121Z,5.53
2022-11-06T06:57:32.932Z,4.75
2022-11-06T06:59:59.734Z,5.07
2022-11-06T07:02:26.518Z,5.00
2022-11-06T07:04:53.305Z,5.53
2022-11-06T07:07:20.120Z,4.20
2022-11-06T07:09:46.946Z,4.43
2022-11-06T07:12:13.728Z,3.58
2022-11-06T07:14:40.518Z,4.85
2022-11-06T07:17:07.251Z,4.72
2022-11-06T07:19:34.230Z,5.72
2022-11-06T07:22:00.977Z,5.70
2022-11-06T07:24:27.723Z,3.88
2022-11-06T07:26:54.496Z,5.55
2022-11-06T07:29:21.220Z,4.97
2022-11-06T07:31:47.984Z,5.03
2022-11-06T07:34:14.848Z,6.43
2022-11-06T07:36:41.635Z,3.92
2022-11-06T07:39:08.402Z,4.38
2022-11-06T07:41:35.358Z,5.20
2022-11-06T07:44:02.085Z,5.00
2022-11-06T07:46:28.833Z,4.30
2022-11-06T07:48:55.584Z,5.18
2022-11-06T07:51:22.334Z,4.28
2022-11-06T07:53:49.115Z,3.97
2022-11-06T07:56:16.037Z,3.65
2022-11-06T07:58:42.806Z,5.55
2022-11-06T08:01:19.079Z,3.58
2022-11-06T08:03:46.496Z,3.60
2022-11-06T08:06:13.293Z,4.53
2022-11-06T08:08:40.223Z,5.05
2022-11-06T08:11:09.595Z,5.43
2022-11-06T08:13:36.842Z,2.80
2022-11-06T08:16:09.333Z,3.90
2022-11-06T08:18:36.517Z,4.82
2022-11-06T08:21:04.219Z,3.28
2022-11-06T08:23:31.090Z,3.58
2022-11-06T08:26:00.310Z,4.70
2022-11-06T08:28:27.812Z,5.35
2022-11-06T08:30:55.083Z,3.53
2022-11-06T08:33:22.904Z,3.50
2022-11-06T08:35:49.767Z,7.13
2022-11-06T08:38:17.238Z,3.28
2022-11-06T08:40:47.063Z,3.63
2022-11-06T08:43:16.426Z,3.17
2022-11-06T08:45:43.739Z,3.55
2022-11-06T08:48:11.229Z,3.78
2022-11-06T08:50:39.781Z,4.88
2022-11-06T08:53:07.391Z,4.50
2022-11-06T08:55:36.066Z,3.10
2022-11-06T08:58:03.741Z,4.20
2022-11-06T09:00:30.594Z,3.30
2022-11-06T09:03:10.036Z,3.45
2022-11-06T09:05:40.596Z,3.15
2022-11-06T09:08:07.906Z,2.72
2022-11-06T09:10:35.092Z,3.13
2022-11-06T09:13:01.859Z,2.45
2022-11-06T09:15:28.620Z,4.05
2022-11-06T09:17:55.656Z,4.10
2022-11-06T09:20:23.593Z,3.30
2022-11-06T09:22:51.400Z,3.83
2022-11-06T09:25:19.194Z,3.25
2022-11-06T09:27:57.306Z,4.15
2022-11-06T09:30:28.040Z,4.20
2022-11-06T09:32:56.725Z,2.15
2022-11-06T09:35:25.571Z,2.20
2022-11-06T09:37:52.571Z,2.40
2022-11-06T09:40:31.314Z,3.85
2022-11-06T09:43:16.793Z,1.95
2022-11-06T09:45:44.784Z,2.60
2022-11-06T09:48:15.919Z,3.25
2022-11-06T09:50:50.653Z,3.17
2022-11-06T09:53:24.464Z,2.97
2022-11-06T09:55:52.610Z,1.90
2022-11-06T09:58:28.393Z,2.05
2022-11-06T10:00:55.397Z,2.05
2022-11-06T10:03:49.433Z,2.92
2022-11-06T10:06:17.536Z,2.25
2022-11-06T10:08:44.492Z,3.58
2022-11-06T10:11:14.312Z,3.40
2022-11-06T10:13:50.056Z,2.97
2022-11-06T10:16:38.537Z,2.35
2022-11-06T10:19:17.274Z,1.67
2022-11-06T10:22:07.240Z,1.67
2022-11-06T10:24:46.074Z,2.97
2022-11-06T10:27:31.180Z,3.03
2022-11-06T10:30:03.761Z,2.10
2022-11-06T10:32:49.314Z,3.22
2022-11-06T10:35:46.363Z,4.10
2022-11-06T10:38:21.703Z,3.50
2022-11-06T10:40:49.327Z,2.50
2022-11-06T10:43:53.075Z,1.77
2022-11-06T10:46:36.843Z,2.20
2022-11-06T10:49:22.352Z,2.08
2022-11-06T10:51:56.393Z,1.80
2022-11-06T10:54:43.471Z,2.30
2022-11-06T10:57:25.744Z,1.50
2022-11-06T10:59:53.168Z,2.47
2022-11-06T11:02:30.344Z,1.73
2022-11-06T11:04:58.386Z,2.30
2022-11-06T11:07:30.188Z,1.42
2022-11-06T11:09:56.925Z,3.15
2022-11-06T11:12:30.717Z,2.47
2022-11-06T11:17:39.693Z,2.72
2022-11-06T11:20:33.361Z,2.55
2022-11-06T11:23:07.967Z,3.60
2022-11-06T11:25:35.012Z,1.95
2022-11-06T11:28:04.977Z,3.10
2022-11-06T11:30:32.153Z,3.13
2022-11-06T11:32:59.469Z,1.50
2022-11-06T11:35:31.143Z,2.10
2022-11-06T11:38:17.120Z,2.45
2022-11-06T11:40:44.423Z,2.70
2022-11-06T11:43:27.455Z,3.00
2022-11-06T11:46:15.684Z,2.47
2022-11-06T11:48:43.637Z,2.20
2022-11-06T11:51:30.695Z,3.10
2022-11-06T11:54:15.312Z,2.35
2022-11-06T11:57:06.079Z,2.28
2022-11-06T11:59:37.811Z,2.30
2022-11-06T12:02:26.793Z,3.25
2022-11-06T12:04:58.752Z,3.60
2022-11-06T12:07:30.015Z,2.10
2022-11-06T12:09:58.791Z,2.15
2022-11-06T12:12:33.956Z,2.58
2022-11-06T12:15:08.976Z,2.60
2022-11-06T12:17:39.417Z,3.28
2022-11-06T12:20:14.815Z,1.77
2022-11-06T12:22:45.708Z,2.13
2022-11-06T12:25:20.893Z,2.92
2022-11-06T12:27:53.681Z,3.45
2022-11-06T12:30:21.160Z,2.10
2022-11-06T12:33:11.497Z,2.13
2022-11-06T12:35:42.676Z,3.15
2022-11-06T12:38:28.376Z,2.63
2022-11-06T12:41:01.528Z,2.75
2022-11-06T12:43:31.149Z,3.08
2022-11-06T12:46:10.639Z,2.28
2022-11-06T12:48:46.026Z,2.17
2022-11-06T12:51:36.496Z,3.13
2022-11-06T12:54:15.239Z,3.15
2022-11-06T12:57:04.712Z,2.78
2022-11-06T13:00:09.522Z,2.00
2022-11-06T13:02:49.800Z,2.95
2022-11-06T13:05:35.397Z,2.47
2022-11-06T13:08:39.472Z,2.15
2022-11-06T13:11:31.880Z,3.08
2022-11-06T13:14:27.477Z,2.13
2022-11-06T13:17:27.191Z,1.63
2022-11-06T13:20:00.223Z,1.55
2022-11-06T13:23:11.844Z,1.92
2022-11-06T13:25:58.875Z,3.10
2022-11-06T13:28:49.878Z,2.78
2022-11-06T13:31:20.332Z,3.95
2022-11-06T13:33:58.258Z,2.95
2022-11-06T13:36:26.805Z,2.55
2022-11-06T13:39:04.979Z,2.72
2022-11-06T13:41:32.608Z,2.28
2022-11-06T13:44:16.184Z,1.55
2022-11-06T13:47:10.973Z,2.47
2022-11-06T13:49:40.575Z,2.15
2022-11-06T13:52:39.371Z,3.58
2022-11-06T13:55:06.181Z,3.13
2022-11-06T13:57:52.100Z,2.17
2022-11-06T14:00:23.333Z,1.98
2022-11-06T14:03:01.855Z,2.15
2022-11-06T14:05:44.528Z,2.85
2022-11-06T14:08:23.193Z,1.45
2022-11-06T14:11:04.052Z,2.50
2022-11-06T14:13:35.884Z,3.38
2022-11-06T14:16:22.855Z,1.90
2022-11-06T14:19:21.455Z,1.63
2022-11-06T14:21:53.586Z,1.95
2022-11-06T14:24:20.359Z,2.53
2022-11-06T14:26:49.901Z,2.20
2022-11-06T14:29:28.881Z,1.52
2022-11-06T14:32:12.075Z,3.10
2022-11-06T14:34:41.270Z,4.87
2022-11-06T14:37:33.964Z,2.25
2022-11-06T14:40:05.247Z,2.10
2022-11-06T14:42:38.048Z,1.83
2022-11-06T14:45:19.537Z,1.85
2022-11-06T14:47:46.260Z,1.95
2022-11-06T14:50:19.130Z,2.40
2022-11-06T14:52:49.691Z,2.07
2022-11-06T14:55:44.713Z,1.60
2022-11-06T14:58:36.366Z,1.70
2022-11-06T15:01:08.959Z,4.93
2022-11-06T15:03:59.745Z,2.72
2022-11-06T15:06:32.403Z,2.70
2022-11-06T15:09:00.748Z,2.70
2022-11-06T15:11:30.570Z,1.85
2022-11-06T15:14:17.325Z,2.38
2022-11-06T15:16:54.576Z,2.58
2022-11-06T15:19:31.697Z,2.38
2022-11-06T15:22:13.420Z,2.53
2022-11-06T15:25:00.598Z,2.58
2022-11-06T15:27:43.551Z,4.22
2022-11-06T15:30:17.360Z,2.20
2022-11-06T15:35:23.731Z,2.50
2022-11-06T15:38:08.003Z,2.47
2022-11-06T15:40:39.562Z,2.58
2022-11-06T15:43:26.656Z,3.30
2022-11-06T15:46:24.613Z,2.78
2022-11-06T15:49:27.023Z,3.30
2022-11-06T15:52:02.261Z,2.80
2022-11-06T15:54:32.562Z,2.40
2022-11-06T15:57:02.672Z,1.95
2022-11-06T15:59:29.411Z,2.05
2022-11-06T16:01:56.246Z,2.22
2022-11-06T16:04:25.523Z,2.60
2022-11-06T16:06:54.688Z,2.17
2022-11-06T16:09:26.687Z,4.05
2022-11-06T16:11:54.286Z,2.30
2022-11-06T16:14:22.279Z,3.05
2022-11-06T16:16:51.652Z,4.25
2022-11-06T16:19:33.871Z,3.17
2022-11-06T16:22:17.074Z,2.45
2022-11-06T16:24:55.087Z,2.73
2022-11-06T16:27:24.383Z,2.92
2022-11-06T16:29:57.815Z,3.45
2022-11-06T16:32:30.694Z,3.90
2022-11-06T16:34:58.532Z,3.70
2022-11-06T16:37:29.461Z,2.97
2022-11-06T16:40:00.047Z,2.95
2022-11-06T16:42:36.574Z,2.97
2022-11-06T16:45:20.105Z,2.30
2022-11-06T16:48:05.773Z,3.60
2022-11-06T16:50:51.632Z,3.83
2022-11-06T16:53:24.959Z,2.65
2022-11-06T16:56:05.454Z,4.07
2022-11-06T16:58:53.848Z,2.72
2022-11-06T17:01:21.212Z,4.03
2022-11-06T17:04:01.322Z,3.60
2022-11-06T17:06:31.334Z,3.58
2022-11-06T17:09:32.473Z,2.47
2022-11-06T17:12:00.818Z,4.75
2022-11-06T17:14:27.853Z,4.20
2022-11-06T17:16:57.905Z,4.60
2022-11-06T17:19:26.057Z,6.45
2022-11-06T17:21:53.448Z,4.80
2022-11-06T17:24:37.274Z,6.18
2022-11-06T17:27:05.333Z,4.80
2022-11-06T17:29:33.636Z,4.28
2022-11-06T17:32:00.402Z,5.60
2022-11-06T17:34:27.331Z,7.88
2022-11-06T17:36:54.182Z,5.40
2022-11-06T17:39:20.967Z,4.95
2022-11-06T17:41:48.098Z,4.10
2022-11-06T17:44:14.990Z,4.63
2022-11-06T17:46:44.118Z,4.50
2022-11-06T17:49:17.208Z,3.38
2022-11-06T17:51:53.215Z,4.28
2022-11-06T17:54:26.269Z,4.75
2022-11-06T17:56:54.487Z,4.32
2022-11-06T17:59:21.658Z,5.75
2022-11-06T18:01:50.562Z,4.95
2022-11-06T18:04:18.853Z,5.15
2022-11-06T18:06:46.843Z,4.20
2022-11-06T18:09:14.837Z,5.80
2022-11-06T18:11:42.604Z,3.72
2022-11-06T18:14:10.135Z,4.45
2022-11-06T18:16:43.380Z,4.40
2022-11-06T18:21:39.030Z,5.65
2022-11-06T18:24:06.251Z,4.95
2022-11-06T18:26:32.997Z,4.97
2022-11-06T18:28:59.802Z,4.13
2022-11-06T18:31:26.547Z,5.38
2022-11-06T18:33:53.272Z,5.78
2022-11-06T18:36:20.103Z,3.33
2022-11-06T18:38:46.888Z,3.95
2022-11-06T18:41:15.016Z,4.03
2022-11-06T18:43:41.821Z,4.20
2022-11-06T18:46:11.124Z,3.92
2022-11-06T18:48:38.553Z,3.35
2022-11-06T18:51:17.630Z,3.72
2022-11-06T18:53:54.688Z,4.55
2022-11-06T18:56:21.727Z,5.18
2022-11-06T18:58:48.513Z,4.22
2022-11-06T19:01:18.787Z,3.90
2022-11-06T19:03:46.610Z,4.55
2022-11-06T19:06:16.866Z,4.97
2022-11-06T19:08:45.312Z,5.75
2022-11-06T19:11:15.238Z,5.55
2022-11-06T19:13:47.444Z,5.60
2022-11-06T19:16:18.582Z,3.65
2022-11-06T19:18:45.669Z,5.15
2022-11-06T19:21:13.381Z,4.15
2022-11-06T19:23:43.278Z,4.30
2022-11-06T19:26:30.735Z,4.45
2022-11-06T19:29:00.048Z,3.97
2022-11-06T19:31:30.579Z,4.30
2022-11-06T19:33:58.993Z,4.20
2022-11-06T19:36:25.819Z,6.95
2022-11-06T19:38:53.004Z,4.57
2022-11-06T19:41:20.690Z,5.03
2022-11-06T19:43:47.594Z,4.43
2022-11-06T19:46:18.228Z,4.53
2022-11-06T19:48:47.723Z,6.45
2022-11-06T19:51:16.216Z,5.70
2022-11-06T19:53:43.108Z,5.63
2022-11-06T19:56:16.768Z,6.07
2022-11-06T19:58:43.653Z,6.00
2022-11-06T20:01:15.137Z,6.68
2022-11-06T20:03:42.371Z,6.45
2022-11-06T20:06:09.500Z,7.40
2022-11-06T20:08:38.641Z,6.28
2022-11-06T20:11:06.120Z,6.43
2022-11-06T20:13:36.379Z,5.80
2022-11-06T20:16:04.402Z,5.28
2022-11-06T20:18:31.701Z,6.35
2022-11-06T20:21:03.907Z,6.55
2022-11-06T20:23:31.311Z,5.55
2022-11-06T20:25:58.383Z,6.35
2022-11-06T20:28:25.467Z,4.68
2022-11-06T20:30:52.995Z,5.60
2022-11-06T20:33:19.903Z,6.72
2022-11-06T20:35:46.690Z,6.53
2022-11-06T20:38:14.659Z,6.85
2022-11-06T20:40:42.034Z,8.15
2022-11-06T20:43:09.343Z,5.70
2022-11-06T20:45:37.586Z,5.70
2022-11-06T20:48:05.771Z,5.50
2022-11-06T20:50:32.904Z,5.95
2022-11-06T20:52:59.869Z,6.15
2022-11-06T20:55:26.943Z,6.13
2022-11-06T20:57:53.677Z,6.75
2022-11-06T21:00:20.607Z,7.20
2022-11-06T21:02:47.706Z,5.35
2022-11-06T21:05:17.646Z,4.45
2022-11-06T21:07:44.404Z,5.57
2022-11-06T21:10:12.311Z,6.18
2022-11-06T21:12:39.111Z,5.30
2022-11-06T21:15:06.497Z,5.63
2022-11-06T21:17:33.276Z,4.88
2022-11-06T21:20:00.074Z,5.45
2022-11-06T21:22:26.944Z,5.13
2022-11-06T21:24:53.704Z,5.60
2022-11-06T21:27:20.504Z,5.88
2022-11-06T21:29:47.413Z,5.15
2022-11-06T21:32:14.165Z,6.57
2022-11-06T21:34:40.923Z,5.00
2022-11-06T21:37:07.762Z,5.57
2022-11-06T21:39:36.500Z,5.53
2022-11-06T21:42:04.357Z,6.03
2022-11-06T21:44:31.214Z,5.43
2022-11-06T21:46:57.945Z,4.22
2022-11-06T21:49:24.742Z,5.57
2022-11-06T21:51:51.500Z,4.13
2022-11-06T21:54:36.860Z,4.97
2022-11-06T21:57:03.693Z,5.18
2022-11-06T21:59:30.667Z,4.88
2022-11-06T22:01:57.776Z,4.15
2022-11-06T22:04:24.818Z,4.70
2022-11-06T22:06:52.495Z,5.18
2022-11-06T22:09:24.551Z,4.45
2022-11-06T22:11:52.803Z,5.05
2022-11-06T22:14:19.559Z,6.25
2022-11-06T22:16:47.330Z,5.13
2022-11-06T22:19:15.445Z,5.20
2022-11-06T22:21:42.709Z,5.60
2022-11-06T22:24:12.312Z,5.00
2022-11-06T22:26:39.733Z,5.32
2022-11-06T22:29:09.440Z,4.32
2022-11-06T22:31:36.244Z,5.18
2022-11-06T22:34:03.858Z,4.75
2022-11-06T22:36:30.855Z,4.90
2022-11-06T22:38:59.705Z,3.92
2022-11-06T22:41:26.766Z,6.47
2022-11-06T22:43:58.889Z,5.78
2022-11-06T22:46:27.300Z,5.20
2022-11-06T22:48:54.246Z,5.45
2022-11-06T22:51:23.544Z,5.97
2022-11-06T22:53:50.708Z,4.75
2022-11-06T22:56:17.978Z,4.70
2022-11-06T22:58:44.838Z,4.97
2022-11-06T23:01:12.459Z,3.72
2022-11-06T23:03:40.044Z,5.38
2022-11-06T23:06:09.470Z,6.10
2022-11-06T23:08:42.927Z,4.45
2022-11-06T23:11:14.877Z,4.05
2022-11-06T23:13:41.771Z,4.55
2022-11-06T23:16:11.276Z,4.32
2022-11-06T23:18:38.387Z,4.93
2022-11-06T23:21:17.399Z,4.57
2022-11-06T23:23:45.537Z,3.65
2022-11-06T23:26:17.910Z,4.60
2022-11-06T23:28:45.751Z,4.28
2022-11-06T23:31:15.370Z,4.43
2022-11-06T23:33:42.746Z,4.30
2022-11-06T23:36:12.408Z,3.90
2022-11-06T23:38:39.783Z,3.70
2022-11-06T23:41:28.626Z,3.63
2022-11-06T23:43:56.499Z,3.63
2022-11-06T23:46:26.553Z,3.78
2022-11-06T23:48:53.743Z,3.80
2022-11-06T23:51:21.417Z,4.28
2022-11-06T23:53:48.503Z,3.45
2022-11-06T23:56:15.740Z,4.53
2022-11-06T23:58:43.429Z,3.65
